Time;durP1;ratioP1;P1;durP2;ratioP2;P2;SDS_P1;SDS_P2;PMS_P1;PMS_P2;Temp;Humidity;BMP_temperature;BMP_pressure;BME280_temperature;BME280_humidity;BME280_pressure;Samples;Min_cycle;Max_cycle;Signal;HPM_P1;HPM_P2
2022/10/27 00:01:17;;;;;;;24.40;13.65;;;12.70;99.90;;;;;;6205132;23;20180;-90
2022/10/27 00:03:49;;;;;;;20.92;15.20;;;12.80;99.90;;;;;;6207953;23;20185;-90
2022/10/27 00:06:20;;;;;;;16.88;14.02;;;12.80;99.90;;;;;;6208944;23;20470;-91
2022/10/27 00:08:50;;;;;;;16.38;13.13;;;12.80;99.90;;;;;;6234676;23;20176;-90
2022/10/27 00:11:18;;;;;;;17.13;12.98;;;12.80;99.90;;;;;;6208283;23;20188;-91
2022/10/27 00:14:02;;;;;;;16.77;13.88;;;12.80;99.90;;;;;;6211689;23;20161;-90
2022/10/27 00:16:30;;;;;;;14.65;12.98;;;12.90;99.90;;;;;;6209613;23;20176;-90
2022/10/27 00:18:57;;;;;;;17.55;12.93;;;12.90;99.90;;;;;;6208739;23;20476;-90
2022/10/27 00:21:24;;;;;;;15.52;13.25;;;13.00;99.90;;;;;;6205290;23;20183;-90
2022/10/27 00:23:51;;;;;;;16.42;13.55;;;13.10;99.90;;;;;;6157448;23;20180;-90
2022/10/27 00:26:19;;;;;;;13.38;11.82;;;13.10;99.90;;;;;;6232666;23;20226;-90
2022/10/27 00:28:47;;;;;;;13.52;11.82;;;13.10;99.90;;;;;;6182102;23;20480;-90
2022/10/27 00:31:20;;;;;;;15.35;12.05;;;13.00;99.90;;;;;;6205801;23;20282;-88
2022/10/27 00:33:50;;;;;;;15.85;12.15;;;13.10;99.90;;;;;;6215438;23;20200;-90
2022/10/27 00:36:20;;;;;;;16.00;12.27;;;13.10;99.90;;;;;;6218382;23;20168;-88
2022/10/27 00:38:52;;;;;;;16.48;13.05;;;13.10;99.90;;;;;;6214769;23;20448;-89
2022/10/27 00:41:50;;;;;;;15.15;12.45;;;13.00;99.90;;;;;;6210843;23;20176;-88
2022/10/27 00:44:37;;;;;;;16.50;12.15;;;13.00;99.90;;;;;;6232726;23;20190;-89
2022/10/27 00:47:25;;;;;;;22.25;12.55;;;12.90;99.90;;;;;;6213322;23;20177;-90
2022/10/27 00:50:17;;;;;;;16.15;12.07;;;12.90;99.90;;;;;;6231890;23;20173;-90
2022/10/27 00:52:50;;;;;;;18.55;14.27;;;12.80;99.90;;;;;;6206380;23;20219;-90
2022/10/27 00:55:21;;;;;;;17.75;11.95;;;12.60;99.90;;;;;;6205318;23;20176;-90
2022/10/27 00:57:55;;;;;;;17.45;12.52;;;12.50;99.90;;;;;;6208276;23;20206;-89
2022/10/27 01:00:22;;;;;;;17.13;13.88;;;12.50;99.90;;;;;;6232508;23;20175;-90
2022/10/27 01:02:50;;;;;;;20.75;13.52;;;12.50;99.90;;;;;;6208354;23;20184;-89
2022/10/27 01:05:23;;;;;;;16.60;13.63;;;12.50;99.90;;;;;;6208439;23;20262;-89
2022/10/27 01:07:54;;;;;;;18.92;13.95;;;12.30;99.90;;;;;;6206856;23;20172;-92
2022/10/27 01:10:22;;;;;;;16.33;11.88;;;12.30;99.90;;;;;;6208530;23;20368;-89
2022/10/27 01:15:51;;;;;;;16.48;12.93;;;12.00;99.90;;;;;;6258634;22;20195;-89
2022/10/27 01:18:56;;;;;;;20.67;14.18;;;11.90;99.90;;;;;;6245812;22;20199;-90
2022/10/27 01:21:50;;;;;;;16.23;12.05;;;11.90;99.90;;;;;;6270616;22;20186;-89
2022/10/27 01:24:28;;;;;;;15.98;14.35;;;11.90;99.90;;;;;;6280154;22;20143;-90
2022/10/27 01:27:02;;;;;;;20.77;13.73;;;11.80;99.90;;;;;;6277468;22;20158;-89
2022/10/27 01:30:01;;;;;;;17.08;14.18;;;11.80;99.90;;;;;;6275691;22;20163;-90
2022/10/27 01:33:06;;;;;;;16.50;13.88;;;11.70;99.90;;;;;;6272726;22;20158;-90
2022/10/27 01:38:31;;;;;;;21.48;14.93;;;11.50;99.90;;;;;;6240006;22;20206;-89
2022/10/27 01:41:12;;;;;;;16.20;13.45;;;11.50;99.90;;;;;;6236136;23;20183;-91
2022/10/27 02:02:48;;;;;;;15.55;13.60;;;11.30;99.90;;;;;;6233995;22;20202;-92
2022/10/27 02:05:50;;;;;;;21.58;14.20;;;11.20;99.90;;;;;;6241749;23;20152;-90
2022/10/27 02:16:23;;;;;;;19.48;15.48;;;11.00;99.90;;;;;;6237997;22;20323;-91
2022/10/27 03:37:08;;;;;;;22.73;16.88;;;10.90;99.90;;;;;;6272727;22;20199;-90
2022/10/27 04:06:36;;;;;;;19.92;16.90;;;10.90;99.90;;;;;;6197944;22;20178;-89
2022/10/27 04:57:34;;;;;;;32.38;18.70;;;10.80;99.90;;;;;;6266880;22;20430;-92
2022/10/27 05:02:44;;;;;;;21.98;16.73;;;10.80;99.90;;;;;;6269791;22;20448;-91
2022/10/27 05:05:11;;;;;;;27.33;18.20;;;10.70;99.90;;;;;;6257055;22;20229;-90
2022/10/27 05:07:51;;;;;;;23.50;18.95;;;10.60;99.90;;;;;;6272263;22;20198;-92
2022/10/27 05:10:20;;;;;;;22.67;18.95;;;10.70;99.90;;;;;;6272378;22;20159;-90
2022/10/27 05:12:49;;;;;;;23.58;18.50;;;10.70;99.90;;;;;;6265546;22;20168;-90
2022/10/27 05:15:31;;;;;;;23.38;17.95;;;10.80;99.90;;;;;;6267751;23;20172;-91
2022/10/27 05:18:03;;;;;;;27.80;17.75;;;10.80;99.90;;;;;;6270403;22;20209;-90
2022/10/27 05:20:36;;;;;;;28.48;18.63;;;10.90;99.90;;;;;;6240865;23;20198;-91
2022/10/27 05:23:05;;;;;;;28.58;18.73;;;10.90;99.90;;;;;;6267033;23;20183;-89
2022/10/27 05:25:55;;;;;;;23.17;18.13;;;10.90;99.90;;;;;;6268841;22;20175;-90
2022/10/27 05:28:27;;;;;;;27.38;17.95;;;10.90;99.90;;;;;;6262385;23;20183;-90
2022/10/27 05:31:09;;;;;;;25.95;17.92;;;10.90;99.90;;;;;;6268368;23;20191;-91
2022/10/27 05:50:12;;;;;;;30.55;21.10;;;11.00;99.90;;;;;;6234566;22;20187;-91
2022/10/27 05:52:40;;;;;;;20.77;16.83;;;11.00;99.90;;;;;;6208149;23;20207;-90
2022/10/27 05:55:13;;;;;;;23.45;17.83;;;11.00;99.90;;;;;;6232263;23;20207;-90
2022/10/27 06:00:25;;;;;;;19.92;16.38;;;11.10;99.90;;;;;;6290134;22;20299;-89
2022/10/27 06:02:56;;;;;;;25.90;16.95;;;11.10;99.90;;;;;;6294190;22;20179;-89
2022/10/27 06:05:29;;;;;;;19.70;16.92;;;11.20;99.90;;;;;;6263516;22;20162;-89
2022/10/27 06:07:57;;;;;;;25.23;18.00;;;11.30;99.90;;;;;;6288300;22;20284;-88
2022/10/27 06:10:26;;;;;;;22.98;17.85;;;11.40;99.90;;;;;;6235350;22;20163;-89
2022/10/27 06:13:03;;;;;;;21.45;19.23;;;11.50;99.90;;;;;;6287513;22;20237;-89
2022/10/27 06:15:34;;;;;;;39.55;21.58;;;11.60;99.90;;;;;;6288448;22;20186;-88
2022/10/27 06:18:02;;;;;;;23.95;18.35;;;11.80;99.90;;;;;;6265287;22;20195;-89
2022/10/27 06:20:33;;;;;;;25.70;19.13;;;11.70;99.90;;;;;;6268505;22;20179;-89
2022/10/27 06:23:13;;;;;;;24.20;19.23;;;11.90;99.90;;;;;;6266991;22;20197;-91
2022/10/27 06:25:55;;;;;;;30.52;20.65;;;11.90;99.90;;;;;;6292857;22;20459;-90
2022/10/27 06:28:37;;;;;;;31.88;19.20;;;12.00;99.90;;;;;;6266433;22;20175;-89
2022/10/27 06:31:08;;;;;;;24.17;18.30;;;12.10;99.90;;;;;;6266959;22;20179;-91
2022/10/27 06:33:35;;;;;;;28.45;19.35;;;12.10;99.90;;;;;;6247943;22;20190;-89
2022/10/27 06:36:05;;;;;;;20.15;17.48;;;12.20;99.90;;;;;;6265056;22;20159;-90
2022/10/27 06:38:33;;;;;;;23.15;18.67;;;12.30;99.90;;;;;;6294521;22;20255;-91
2022/10/27 06:41:00;;;;;;;29.58;19.65;;;12.40;99.90;;;;;;6294343;22;20183;-90
2022/10/27 06:43:28;;;;;;;21.50;18.13;;;12.50;99.90;;;;;;6290839;22;20242;-90
2022/10/27 06:46:01;;;;;;;19.65;16.10;;;12.60;99.90;;;;;;6266905;22;20178;-90
2022/10/27 06:48:33;;;;;;;23.05;18.23;;;12.80;99.90;;;;;;6286605;22;20159;-86
2022/10/27 06:51:00;;;;;;;24.73;18.88;;;12.90;99.90;;;;;;6257712;22;20371;-86
2022/10/27 06:53:28;;;;;;;22.55;16.40;;;13.10;99.90;;;;;;6257269;22;20179;-86
2022/10/27 06:55:57;;;;;;;18.08;16.25;;;13.10;99.90;;;;;;6256638;22;20220;-86
2022/10/27 06:58:25;;;;;;;23.77;16.02;;;13.30;99.90;;;;;;6260555;22;20528;-87
2022/10/27 07:00:54;;;;;;;20.42;14.57;;;13.60;99.90;;;;;;6256453;22;20183;-86
2022/10/27 07:03:25;;;;;;;20.60;13.55;;;13.70;99.90;;;;;;6256894;22;20215;-84
2022/10/27 07:05:53;;;;;;;19.20;12.48;;;13.70;99.90;;;;;;6255909;22;20221;-84
2022/10/27 07:08:20;;;;;;;14.15;11.10;;;13.80;99.90;;;;;;6283117;22;20420;-86
2022/10/27 07:10:54;;;;;;;16.58;11.73;;;14.20;99.90;;;;;;6263839;22;20163;-84
2022/10/27 07:13:24;;;;;;;16.05;11.25;;;14.70;99.90;;;;;;6265925;22;20166;-86
2022/10/27 07:15:51;;;;;;;13.93;10.13;;;15.30;99.90;;;;;;6282756;22;20182;-85
2022/10/27 07:18:18;;;;;;;12.60;9.03;;;15.90;99.90;;;;;;6281803;22;20244;-84
2022/10/27 07:20:48;;;;;;;12.80;9.30;;;16.80;99.90;;;;;;6255560;22;20708;-85
2022/10/27 07:23:17;;;;;;;13.87;8.43;;;17.90;99.90;;;;;;6282395;22;20397;-84
2022/10/27 07:25:48;;;;;;;9.33;7.80;;;19.00;99.90;;;;;;6255431;22;20351;-85
2022/10/27 07:28:16;;;;;;;10.30;8.40;;;19.60;99.90;;;;;;6281413;22;20378;-84
2022/10/27 07:30:44;;;;;;;8.40;7.13;;;20.60;99.90;;;;;;6281649;22;20427;-84
2022/10/27 07:33:14;;;;;;;10.47;7.13;;;21.70;99.90;;;;;;6282285;22;20379;-83
2022/10/27 07:35:41;;;;;;;8.90;8.00;;;22.40;99.90;;;;;;6255124;22;20428;-84
2022/10/27 07:38:11;;;;;;;13.20;7.37;;;23.30;99.90;;;;;;6281507;22;20437;-84
2022/10/27 07:40:38;;;;;;;9.90;8.43;;;24.10;99.90;;;;;;6280614;22;20363;-84
2022/10/27 07:43:06;;;;;;;13.23;8.27;;;24.90;99.90;;;;;;6281813;22;20900;-83
2022/10/27 07:45:40;;;;;;;8.47;7.60;;;25.40;99.90;;;;;;6254838;22;20363;-83
2022/10/27 07:48:11;;;;;;;12.87;8.00;;;26.00;99.90;;;;;;6255540;22;20351;-84
2022/10/27 07:50:40;;;;;;;16.70;8.20;;;26.40;99.90;;;;;;6280806;22;20378;-84
2022/10/27 07:53:09;;;;;;;12.10;8.50;;;26.70;99.90;;;;;;6281190;22;20412;-84
2022/10/27 07:55:37;;;;;;;9.60;8.70;;;27.00;99.90;;;;;;6282146;22;20369;-84
2022/10/27 07:58:12;;;;;;;12.47;9.23;;;27.20;99.90;;;;;;6255398;22;20509;-84
2022/10/27 08:00:47;;;;;;;14.30;7.33;;;27.50;99.90;;;;;;6297566;22;20386;-82
2022/10/27 08:03:17;;;;;;;11.73;8.67;;;27.70;99.90;;;;;;6271990;22;20397;-84
2022/10/27 08:05:45;;;;;;;8.67;7.77;;;27.80;99.90;;;;;;6271743;22;20399;-84
2022/10/27 08:08:13;;;;;;;8.60;7.27;;;27.90;99.90;;;;;;6296921;22;20392;-84
2022/10/27 08:10:41;;;;;;;11.17;6.93;;;28.00;99.90;;;;;;6298031;22;20429;-82
2022/10/27 08:13:09;;;;;;;10.43;7.37;;;28.10;99.90;;;;;;6284367;22;20619;-83
2022/10/27 08:15:37;;;;;;;8.33;7.20;;;27.80;99.90;;;;;;6281669;22;20445;-82
2022/10/27 08:18:05;;;;;;;8.13;6.00;;;27.60;99.90;;;;;;6281171;22;20435;-82
2022/10/27 08:20:40;;;;;;;11.80;7.10;;;27.80;99.90;;;;;;6254488;22;20380;-83
2022/10/27 08:23:16;;;;;;;5.80;5.30;;;28.00;99.90;;;;;;6281127;22;20376;-83
2022/10/27 08:25:47;;;;;;;7.43;6.73;;;28.20;99.90;;;;;;6281747;22;20391;-82
2022/10/27 08:28:14;;;;;;;7.00;6.30;;;28.00;99.90;;;;;;6281227;22;20358;-82
2022/10/27 08:30:42;;;;;;;9.30;5.60;;;27.10;99.90;;;;;;6281187;22;20401;-82
2022/10/27 08:33:17;;;;;;;9.87;6.73;;;26.60;99.90;;;;;;6277388;22;20397;-83
2022/10/27 08:35:49;;;;;;;7.83;6.50;;;26.70;99.90;;;;;;6230028;22;20397;-83
2022/10/27 08:38:17;;;;;;;7.00;6.10;;;26.70;99.90;;;;;;6279710;22;20621;-83
2022/10/27 08:40:52;;;;;;;7.50;6.70;;;26.30;99.90;;;;;;6280273;22;20429;-83
2022/10/27 08:43:41;;;;;;;10.83;8.93;;;25.20;99.90;;;;;;6280784;22;20383;-83
2022/10/27 08:46:17;;;;;;;8.20;6.80;;;24.10;99.90;;;;;;6254806;22;20615;-82
2022/10/27 08:48:47;;;;;;;9.93;7.83;;;24.30;99.90;;;;;;6280679;22;20367;-83
2022/10/27 08:51:18;;;;;;;13.50;7.77;;;24.40;99.90;;;;;;6279649;22;20359;-82
2022/10/27 08:53:52;;;;;;;9.90;6.00;;;24.00;99.90;;;;;;6280444;22;20423;-82
2022/10/27 08:56:22;;;;;;;15.87;6.80;;;23.40;99.90;;;;;;6254839;22;20402;-81
2022/10/27 08:58:49;;;;;;;11.20;6.57;;;22.70;99.90;;;;;;6280183;22;20453;-82
2022/10/27 09:01:35;;;;;;;10.73;7.30;;;21.60;99.90;;;;;;6280730;22;20374;-83
2022/10/27 09:04:36;;;;;;;8.13;6.63;;;20.90;99.90;;;;;;6282675;22;20360;-82
2022/10/27 09:07:11;;;;;;;6.33;5.60;;;20.50;99.90;;;;;;6254025;22;20714;-85
2022/10/27 09:09:54;;;;;;;6.50;5.90;;;19.80;99.90;;;;;;6253602;22;20366;-82
2022/10/27 09:12:46;;;;;;;7.53;5.77;;;19.50;99.90;;;;;;6280852;22;20381;-82
2022/10/27 09:15:44;;;;;;;8.67;7.80;;;19.60;99.90;;;;;;6279932;22;20359;-82
2022/10/27 09:18:35;;;;;;;9.30;7.00;;;19.30;99.90;;;;;;6278879;22;20416;-82
2022/10/27 09:21:12;;;;;;;9.13;6.23;;;19.10;99.90;;;;;;6280646;22;20400;-82
2022/10/27 09:23:45;;;;;;;12.60;7.40;;;18.80;99.90;;;;;;6279076;22;20374;-82
2022/10/27 09:26:18;;;;;;;8.60;6.30;;;18.70;99.90;;;;;;6279697;22;20355;-82
2022/10/27 09:28:54;;;;;;;8.13;6.20;;;18.40;99.90;;;;;;6279279;22;20403;-82
2022/10/27 09:31:39;;;;;;;16.20;7.27;;;18.40;99.90;;;;;;6281414;22;20440;-83
2022/10/27 09:34:47;;;;;;;9.40;6.77;;;18.70;99.90;;;;;;6282585;22;20472;-81
2022/10/27 09:37:17;;;;;;;10.63;7.03;;;18.50;99.90;;;;;;6258241;22;20426;-81
2022/10/27 09:39:52;;;;;;;9.70;7.80;;;18.50;99.90;;;;;;6279876;22;20696;-83
2022/10/27 09:42:20;;;;;;;9.53;6.60;;;18.80;99.90;;;;;;6281258;22;20398;-82
2022/10/27 09:44:57;;;;;;;10.50;7.70;;;18.80;99.90;;;;;;6254517;22;20575;-81
2022/10/27 09:47:30;;;;;;;8.80;7.17;;;18.60;99.90;;;;;;6280060;22;20438;-81
2022/10/27 09:49:58;;;;;;;8.00;6.87;;;18.80;99.90;;;;;;6281897;22;20634;-81
2022/10/27 09:52:39;;;;;;;12.30;6.60;;;18.80;99.90;;;;;;6279726;22;20704;-82
2022/10/27 09:55:11;;;;;;;7.77;6.77;;;18.90;99.90;;;;;;6281366;22;20388;-81
2022/10/27 09:57:40;;;;;;;9.70;6.60;;;18.90;99.90;;;;;;6254177;22;20351;-83
2022/10/27 10:03:31;;;;;;;11.83;7.53;;;19.10;99.90;;;;;;6280351;22;20445;-81
2022/10/27 10:05:59;;;;;;;15.23;6.77;;;19.30;99.90;;;;;;6279788;22;20421;-81
2022/10/27 10:08:29;;;;;;;9.20;7.03;;;19.30;99.90;;;;;;6278902;22;20630;-82
2022/10/27 10:11:36;;;;;;;8.40;7.40;;;19.40;99.90;;;;;;6281362;22;20746;-81
2022/10/27 10:14:20;;;;;;;15.60;6.33;;;19.60;99.90;;;;;;6213921;22;20722;-82
2022/10/27 10:16:48;;;;;;;7.40;6.30;;;19.40;99.90;;;;;;6253478;22;20372;-81
2022/10/27 10:19:21;;;;;;;8.87;5.87;;;19.40;99.90;;;;;;6279835;22;20395;-82
2022/10/27 10:21:58;;;;;;;9.57;6.43;;;19.30;99.90;;;;;;6253168;22;20376;-81
2022/10/27 10:24:35;;;;;;;7.27;5.90;;;19.30;99.90;;;;;;6280310;22;20374;-82
2022/10/27 10:27:20;;;;;;;10.30;7.83;;;19.40;99.90;;;;;;6280566;22;20448;-80
2022/10/27 10:29:49;;;;;;;10.60;7.20;;;19.30;99.90;;;;;;6253795;22;20735;-81
2022/10/27 10:32:21;;;;;;;13.20;8.23;;;19.30;99.90;;;;;;6280157;22;20392;-81
2022/10/27 10:34:52;;;;;;;11.33;7.60;;;19.30;99.90;;;;;;6251898;22;20416;-81
2022/10/27 10:37:39;;;;;;;10.53;8.47;;;19.30;99.90;;;;;;6280265;22;20371;-82
2022/10/27 10:40:28;;;;;;;12.53;8.60;;;19.20;99.90;;;;;;6254946;22;20408;-84
2022/10/27 10:43:13;;;;;;;8.17;6.47;;;19.10;99.90;;;;;;6280635;22;20407;-81
2022/10/27 10:45:40;;;;;;;14.10;7.07;;;19.20;99.90;;;;;;6281619;22;20388;-82
2022/10/27 10:48:14;;;;;;;9.83;7.63;;;19.20;99.90;;;;;;6255535;22;20387;-82
2022/10/27 10:50:53;;;;;;;10.23;6.87;;;19.20;99.90;;;;;;6257432;22;20399;-81
2022/10/27 10:53:31;;;;;;;11.43;9.40;;;19.10;99.90;;;;;;6281619;22;20412;-83
2022/10/27 10:56:03;;;;;;;10.27;8.03;;;19.10;99.90;;;;;;6281274;22;20347;-83
2022/10/27 10:58:33;;;;;;;8.33;7.47;;;19.00;99.90;;;;;;6281505;22;20432;-82
2022/10/27 11:01:04;;;;;;;11.43;8.77;;;18.90;99.90;;;;;;6256193;22;20830;-82
2022/10/27 11:03:40;;;;;;;14.17;10.20;;;19.00;99.90;;;;;;6280085;22;20406;-83
2022/10/27 11:06:19;;;;;;;10.47;7.37;;;19.00;99.90;;;;;;6254983;22;20590;-83
2022/10/27 11:09:12;;;;;;;8.53;7.73;;;19.00;99.90;;;;;;6281849;22;20428;-84
2022/10/27 11:11:44;;;;;;;13.80;9.87;;;18.90;99.90;;;;;;6278510;22;20410;-83
2022/10/27 11:14:15;;;;;;;18.13;11.47;;;18.90;99.90;;;;;;6254269;22;20499;-82
2022/10/27 11:16:52;;;;;;;9.57;8.60;;;19.00;99.90;;;;;;6282336;22;20380;-83
2022/10/27 11:19:22;;;;;;;14.43;11.17;;;19.20;99.90;;;;;;6280856;22;20727;-82
2022/10/27 11:21:57;;;;;;;13.60;8.77;;;19.20;99.90;;;;;;6255004;22;20473;-82
2022/10/27 11:24:30;;;;;;;13.70;8.37;;;19.20;99.90;;;;;;6280505;22;20400;-84
2022/10/27 11:26:59;;;;;;;15.30;9.90;;;19.20;99.90;;;;;;6254392;22;20378;-83
2022/10/27 11:29:40;;;;;;;12.27;8.60;;;19.30;99.90;;;;;;6254688;22;20370;-82
2022/10/27 11:32:25;;;;;;;12.53;7.90;;;19.30;99.90;;;;;;6283152;22;20585;-83
2022/10/27 11:34:59;;;;;;;10.67;9.43;;;19.40;99.90;;;;;;6256140;22;20401;-84
2022/10/27 11:38:00;;;;;;;13.43;9.37;;;19.70;99.90;;;;;;6286640;22;20382;-82
2022/10/27 11:40:46;;;;;;;11.00;9.10;;;19.80;99.90;;;;;;6272038;22;20438;-82
2022/10/27 11:43:24;;;;;;;11.93;9.03;;;19.90;99.90;;;;;;6299116;22;20407;-83
2022/10/27 11:46:16;;;;;;;13.40;9.13;;;20.10;99.90;;;;;;6291766;22;20385;-84
2022/10/27 11:48:53;;;;;;;11.40;8.77;;;20.10;99.90;;;;;;6286651;22;20404;-83
2022/10/27 11:51:29;;;;;;;17.90;11.43;;;20.10;99.90;;;;;;6290094;22;20384;-83
2022/10/27 11:53:56;;;;;;;10.57;9.47;;;20.20;99.90;;;;;;6296778;22;20380;-83
2022/10/27 11:56:40;;;;;;;10.47;9.10;;;20.30;99.90;;;;;;6282825;22;20705;-82
2022/10/27 11:59:19;;;;;;;10.00;9.00;;;20.00;99.90;;;;;;6281751;22;20473;-82
2022/10/27 12:02:00;;;;;;;11.73;9.10;;;19.90;99.90;;;;;;6280349;22;20382;-85
2022/10/27 12:05:04;;;;;;;11.93;8.03;;;19.90;99.90;;;;;;6280748;22;20386;-83
2022/10/27 12:07:36;;;;;;;11.53;8.13;;;19.90;99.90;;;;;;6255179;22;20686;-82
2022/10/27 12:10:25;;;;;;;11.00;7.20;;;20.00;99.90;;;;;;6281347;22;20380;-83
2022/10/27 12:13:01;;;;;;;13.17;7.97;;;20.20;99.90;;;;;;6281533;22;20423;-82
2022/10/27 12:15:32;;;;;;;11.60;8.93;;;20.20;99.90;;;;;;6282004;22;20400;-83
2022/10/27 12:18:02;;;;;;;13.20;8.30;;;20.20;99.90;;;;;;6282074;22;20375;-83
2022/10/27 12:20:43;;;;;;;13.60;9.37;;;20.40;99.90;;;;;;6256508;22;20433;-81
2022/10/27 12:23:18;;;;;;;12.50;8.63;;;20.10;99.90;;;;;;6281630;22;20679;-83
2022/10/27 12:25:50;;;;;;;11.53;9.10;;;19.90;99.90;;;;;;6281577;22;20357;-82
2022/10/27 12:28:20;;;;;;;10.47;8.97;;;19.80;99.90;;;;;;6280567;22;20381;-82
2022/10/27 12:30:48;;;;;;;10.70;8.80;;;19.70;99.90;;;;;;6281833;22;20428;-83
2022/10/27 12:33:43;;;;;;;11.07;9.70;;;19.50;99.90;;;;;;6254661;22;20423;-81
2022/10/27 12:36:44;;;;;;;12.97;8.40;;;19.60;99.90;;;;;;6281070;22;20398;-83
2022/10/27 12:39:44;;;;;;;11.27;8.80;;;19.70;99.90;;;;;;6284423;22;20410;-83
2022/10/27 12:42:29;;;;;;;11.77;9.43;;;20.00;99.90;;;;;;6298003;22;20347;-84
2022/10/27 12:45:19;;;;;;;12.43;8.83;;;19.70;99.90;;;;;;6272373;22;20421;-81
2022/10/27 12:47:58;;;;;;;10.73;7.60;;;19.70;99.90;;;;;;6298266;22;20385;-82
2022/10/27 12:50:59;;;;;;;16.03;8.90;;;19.80;99.90;;;;;;6285391;22;20406;-83
2022/10/27 12:53:36;;;;;;;8.67;7.77;;;19.70;99.90;;;;;;6281393;22;20347;-84
2022/10/27 12:56:11;;;;;;;10.20;7.53;;;19.60;99.90;;;;;;6282193;22;20522;-84
2022/10/27 12:58:46;;;;;;;11.77;8.70;;;19.60;99.90;;;;;;6255412;22;20410;-82
2022/10/27 13:01:19;;;;;;;13.47;9.10;;;19.50;99.90;;;;;;6280986;22;20376;-84
2022/10/27 13:03:51;;;;;;;12.07;8.10;;;19.50;99.90;;;;;;6283111;22;20367;-84
2022/10/27 13:06:22;;;;;;;16.17;9.60;;;19.50;99.90;;;;;;6281001;22;20351;-83
2022/10/27 13:08:57;;;;;;;12.83;8.30;;;19.60;99.90;;;;;;6280764;22;20399;-82
2022/10/27 13:11:58;;;;;;;11.20;8.33;;;19.60;99.90;;;;;;6281108;22;20372;-83
2022/10/27 13:14:44;;;;;;;8.53;7.00;;;19.70;99.90;;;;;;6280658;22;20356;-82
2022/10/27 13:17:35;;;;;;;11.70;7.60;;;19.60;99.90;;;;;;6281117;22;20661;-83
2022/10/27 13:20:26;;;;;;;12.07;8.23;;;19.60;99.90;;;;;;6280240;22;20530;-82
2022/10/27 13:23:00;;;;;;;18.63;8.30;;;19.80;99.90;;;;;;6254268;22;20550;-84
2022/10/27 13:25:42;;;;;;;10.37;8.40;;;19.70;99.90;;;;;;6281390;22;20543;-83
2022/10/27 13:28:19;;;;;;;10.20;8.30;;;19.70;99.90;;;;;;6282660;22;20619;-83
2022/10/27 13:31:02;;;;;;;12.20;7.67;;;19.70;99.90;;;;;;6281605;22;20343;-84
2022/10/27 13:33:36;;;;;;;7.80;6.33;;;19.70;99.90;;;;;;6254171;22;20416;-84
2022/10/27 13:36:19;;;;;;;9.13;7.10;;;19.80;99.90;;;;;;6281527;22;20368;-84
2022/10/27 13:38:47;;;;;;;11.23;8.33;;;19.60;99.90;;;;;;6280882;22;20396;-85
2022/10/27 13:42:00;;;;;;;9.57;8.67;;;19.70;99.90;;;;;;6257182;22;20644;-86
2022/10/27 13:44:32;;;;;;;13.70;8.97;;;19.20;99.90;;;;;;6277319;22;20412;-83
2022/10/27 13:47:02;;;;;;;11.50;8.57;;;19.00;99.90;;;;;;6281915;22;20450;-85
2022/10/27 13:49:56;;;;;;;10.67;7.67;;;19.00;99.90;;;;;;6280175;22;20580;-85
2022/10/27 13:52:25;;;;;;;11.43;8.43;;;19.10;99.90;;;;;;6277658;22;20404;-84
2022/10/27 13:54:57;;;;;;;11.43;7.73;;;19.20;99.90;;;;;;6254708;22;20405;-84
2022/10/27 13:58:00;;;;;;;13.63;7.77;;;19.40;99.90;;;;;;6282458;22;20691;-84
2022/10/27 14:00:54;;;;;;;10.50;7.37;;;19.60;99.90;;;;;;6283050;22;20623;-87
2022/10/27 14:03:30;;;;;;;7.67;6.90;;;19.30;99.90;;;;;;6287577;22;20424;-84
2022/10/27 14:05:58;;;;;;;7.63;6.80;;;19.10;99.90;;;;;;6280815;22;20692;-84
2022/10/27 14:08:28;;;;;;;12.70;6.90;;;19.20;99.90;;;;;;6254689;22;20399;-85
2022/10/27 14:11:00;;;;;;;8.83;6.83;;;19.30;99.90;;;;;;6281273;22;20380;-85
2022/10/27 14:13:41;;;;;;;8.83;7.20;;;19.40;99.90;;;;;;6257158;22;20448;-84
2022/10/27 14:16:18;;;;;;;11.80;9.47;;;19.30;99.90;;;;;;6280714;22;20370;-84
2022/10/27 14:19:00;;;;;;;14.80;8.93;;;19.20;99.90;;;;;;6280848;22;20480;-85
2022/10/27 14:21:34;;;;;;;17.10;9.30;;;19.30;99.90;;;;;;6282350;22;20372;-84
2022/10/27 14:24:10;;;;;;;16.00;10.73;;;19.30;99.90;;;;;;6286698;22;20376;-85
2022/10/27 14:26:37;;;;;;;11.20;9.57;;;19.30;99.90;;;;;;6282199;22;20343;-84
2022/10/27 14:29:21;;;;;;;14.10;10.43;;;19.30;99.90;;;;;;6285317;22;20758;-83
2022/10/27 14:31:51;;;;;;;8.77;7.87;;;19.30;99.90;;;;;;6284652;22;20419;-85
2022/10/27 14:34:25;;;;;;;9.67;7.87;;;19.20;99.90;;;;;;6257186;22;20416;-85
2022/10/27 14:36:54;;;;;;;12.40;9.20;;;19.10;99.90;;;;;;6282490;22;20582;-85
2022/10/27 14:39:34;;;;;;;11.40;8.17;;;19.00;99.90;;;;;;6282748;22;20454;-84
2022/10/27 14:42:10;;;;;;;14.40;8.97;;;19.00;99.90;;;;;;6282619;22;20342;-85
2022/10/27 14:44:41;;;;;;;10.27;8.40;;;19.00;99.90;;;;;;6282649;22;20376;-84
2022/10/27 14:47:14;;;;;;;11.20;7.00;;;19.00;99.90;;;;;;6283208;22;20866;-83
2022/10/27 14:49:55;;;;;;;9.83;8.10;;;19.00;99.90;;;;;;6282884;22;20359;-84
2022/10/27 14:52:35;;;;;;;11.40;7.30;;;18.80;99.90;;;;;;6255132;22;20408;-85
2022/10/27 14:55:02;;;;;;;9.70;8.60;;;18.80;99.90;;;;;;6283087;22;20776;-84
2022/10/27 14:57:35;;;;;;;11.20;8.80;;;18.70;99.90;;;;;;6284680;22;20407;-85
2022/10/27 15:00:31;;;;;;;10.77;7.63;;;18.60;99.90;;;;;;6283045;22;20419;-83
2022/10/27 15:03:04;;;;;;;9.97;8.43;;;18.50;99.90;;;;;;6283079;22;20380;-84
2022/10/27 15:05:44;;;;;;;10.17;8.40;;;18.50;99.90;;;;;;6282616;22;20380;-84
2022/10/27 15:08:20;;;;;;;14.00;9.30;;;18.50;99.90;;;;;;6282567;22;20351;-85
2022/10/27 15:10:52;;;;;;;10.00;8.50;;;18.40;99.90;;;;;;6282701;22;20433;-84
2022/10/27 15:13:21;;;;;;;17.57;10.17;;;18.40;99.90;;;;;;6256917;22;20565;-86
2022/10/27 15:15:49;;;;;;;11.43;9.40;;;18.30;99.90;;;;;;6285145;22;20450;-84
2022/10/27 15:18:33;;;;;;;10.60;7.87;;;18.20;99.90;;;;;;6294156;22;20543;-86
2022/10/27 15:21:07;;;;;;;14.03;9.20;;;18.20;99.90;;;;;;6298234;22;20512;-85
2022/10/27 15:23:36;;;;;;;12.50;9.43;;;18.10;99.90;;;;;;6295140;22;20487;-85
2022/10/27 15:26:04;;;;;;;15.10;8.20;;;18.10;99.90;;;;;;6284950;22;20423;-86
2022/10/27 15:28:35;;;;;;;10.87;9.70;;;18.00;99.90;;;;;;6282575;22;20402;-85
2022/10/27 15:31:04;;;;;;;13.63;9.00;;;17.90;99.90;;;;;;6282239;22;20405;-85
2022/10/27 15:33:37;;;;;;;15.90;10.07;;;17.90;99.90;;;;;;6255805;22;20585;-85
2022/10/27 15:36:17;;;;;;;19.53;11.80;;;17.90;99.90;;;;;;6282689;22;20368;-85
2022/10/27 15:38:46;;;;;;;18.90;11.50;;;17.70;99.90;;;;;;6283160;22;20671;-85
2022/10/27 15:41:19;;;;;;;13.13;11.00;;;17.60;99.90;;;;;;6256246;22;20790;-85
2022/10/27 15:44:15;;;;;;;12.03;10.50;;;17.60;99.90;;;;;;6283396;22;20381;-84
2022/10/27 15:46:43;;;;;;;18.43;11.63;;;17.40;99.90;;;;;;6269366;22;20410;-86
2022/10/27 15:49:32;;;;;;;16.60;13.07;;;17.40;99.90;;;;;;6282974;22;20400;-85
2022/10/27 15:52:06;;;;;;;14.70;12.00;;;17.20;99.90;;;;;;6256099;22;20595;-84
2022/10/27 15:54:53;;;;;;;12.70;10.73;;;17.20;99.90;;;;;;6283961;22;20387;-86
2022/10/27 15:57:34;;;;;;;22.17;12.90;;;17.00;99.90;;;;;;6285294;22;20383;-85
2022/10/27 16:00:24;;;;;;;15.90;11.63;;;16.90;99.90;;;;;;6256101;22;20426;-84
2022/10/27 16:02:57;;;;;;;15.97;11.97;;;16.80;99.90;;;;;;6258461;22;20416;-85
2022/10/27 16:05:34;;;;;;;22.43;14.57;;;16.90;99.90;;;;;;6258348;22;20655;-85
2022/10/27 16:08:13;;;;;;;22.43;16.60;;;16.70;99.90;;;;;;6256813;22;20380;-84
2022/10/27 16:10:40;;;;;;;24.30;17.77;;;16.60;99.90;;;;;;6285937;22;20764;-85
2022/10/27 16:13:14;;;;;;;21.57;17.13;;;16.50;99.90;;;;;;6287702;22;20721;-85
2022/10/27 16:15:43;;;;;;;24.30;15.07;;;16.30;99.90;;;;;;6263280;22;20394;-85
2022/10/27 16:18:14;;;;;;;31.20;18.00;;;16.40;99.90;;;;;;6295722;22;20388;-85
2022/10/27 16:20:46;;;;;;;21.73;14.33;;;16.30;99.90;;;;;;6266098;22;20420;-86
2022/10/27 16:23:15;;;;;;;17.13;13.70;;;16.10;99.90;;;;;;6289706;22;20404;-86
2022/10/27 16:25:44;;;;;;;19.00;15.17;;;16.10;99.90;;;;;;6289210;22;20431;-86
2022/10/27 16:28:27;;;;;;;25.40;17.97;;;16.10;99.90;;;;;;6259872;22;20406;-86
2022/10/27 16:30:57;;;;;;;18.50;15.57;;;16.10;99.90;;;;;;6239670;22;20394;-86
2022/10/27 16:33:24;;;;;;;19.00;16.27;;;16.30;99.90;;;;;;6263740;22;20410;-86
2022/10/27 16:35:52;;;;;;;20.83;15.50;;;16.40;99.90;;;;;;6285567;22;20382;-85
2022/10/27 16:38:20;;;;;;;24.67;17.20;;;16.40;99.90;;;;;;6286945;22;20396;-85
2022/10/27 16:40:47;;;;;;;22.77;16.63;;;16.50;99.90;;;;;;6286261;22;20771;-85
2022/10/27 16:43:22;;;;;;;23.37;15.57;;;16.20;99.90;;;;;;6260705;22;20419;-87
2022/10/27 16:45:49;;;;;;;28.83;18.67;;;16.10;99.90;;;;;;6235454;22;20380;-87
2022/10/27 16:48:17;;;;;;;23.10;17.43;;;16.10;99.90;;;;;;6285478;22;20398;-85
2022/10/27 16:50:45;;;;;;;19.50;16.40;;;16.00;99.90;;;;;;6258676;22;20411;-86